createdAt,value
2019-03-25T00:00:14.938Z,0
2019-03-25T00:01:14.992Z,0
2019-03-25T00:02:15.042Z,0
2019-03-25T00:03:15.116Z,0
2019-03-25T00:04:15.136Z,0
2019-03-25T00:05:15.174Z,0
2019-03-25T00:06:15.227Z,0
2019-03-25T00:07:15.319Z,0
2019-03-25T00:08:15.334Z,0
2019-03-25T00:09:15.377Z,0
2019-03-25T00:10:15.419Z,0
2019-03-25T00:11:15.461Z,0
2019-03-25T00:12:15.516Z,0
2019-03-25T00:13:15.552Z,0
2019-03-25T00:14:15.582Z,0
2019-03-25T00:15:15.612Z,0
2019-03-25T00:16:15.653Z,0
2019-03-25T00:17:15.723Z,0
2019-03-25T00:18:15.720Z,0
2019-03-25T00:19:15.750Z,0
2019-03-25T00:20:15.774Z,0
2019-03-25T00:21:15.831Z,0
2019-03-25T00:22:15.860Z,0
2019-03-25T00:23:15.888Z,0
2019-03-25T00:24:15.925Z,0
2019-03-25T00:25:15.984Z,0
2019-03-25T00:26:17.033Z,0
2019-03-25T00:27:16.066Z,0
2019-03-25T00:28:16.085Z,0
2019-03-25T00:29:16.110Z,0
2019-03-25T00:30:16.139Z,0
2019-03-25T00:31:16.200Z,0
2019-03-25T00:32:16.253Z,0
2019-03-25T00:33:16.293Z,0
2019-03-25T00:34:16.317Z,0
2019-03-25T00:35:16.371Z,0
2019-03-25T00:36:16.412Z,0
2019-03-25T00:37:16.475Z,0
2019-03-25T00:38:16.506Z,0
2019-03-25T00:39:16.540Z,0
2019-03-25T00:40:16.585Z,0
2019-03-25T00:41:16.649Z,0
2019-03-25T00:42:16.766Z,0
2019-03-25T00:43:16.793Z,0
2019-03-25T00:44:16.823Z,0
2019-03-25T00:45:16.874Z,0
2019-03-25T00:46:16.928Z,0
2019-03-25T00:47:17.917Z,0
2019-03-25T00:48:16.976Z,0
2019-03-25T00:49:17.030Z,0
2019-03-25T00:50:17.112Z,0
2019-03-25T00:51:17.204Z,0
2019-03-25T00:52:17.239Z,0
2019-03-25T00:53:17.278Z,0
2019-03-25T00:54:17.311Z,0
2019-03-25T00:55:18.342Z,0
2019-03-25T00:56:17.407Z,0
2019-03-25T00:57:17.448Z,0
2019-03-25T00:58:17.483Z,0
2019-03-25T00:59:17.516Z,0
2019-03-25T01:00:17.552Z,0
2019-03-25T01:01:17.615Z,0
2019-03-25T01:02:17.669Z,0
2019-03-25T01:03:17.707Z,0
2019-03-25T01:04:17.745Z,0
2019-03-25T01:05:17.808Z,0
2019-03-25T01:06:17.920Z,0
2019-03-25T01:07:17.960Z,0
2019-03-25T01:08:18.069Z,0
2019-03-25T01:09:18.122Z,0
2019-03-25T01:10:18.152Z,0
2019-03-25T01:11:18.270Z,0
2019-03-25T01:12:18.304Z,0
2019-03-25T01:13:18.346Z,0
2019-03-25T01:14:18.395Z,0
2019-03-25T01:15:18.449Z,0
2019-03-25T01:16:18.507Z,0
2019-03-25T01:17:18.541Z,0
2019-03-25T01:18:18.572Z,0
2019-03-25T01:19:18.615Z,0
2019-03-25T01:20:18.685Z,0
2019-03-25T01:21:18.698Z,0
2019-03-25T01:22:18.736Z,0
2019-03-25T01:23:18.774Z,0
2019-03-25T01:24:18.818Z,0
2019-03-25T01:25:18.847Z,0
2019-03-25T01:26:18.941Z,0
2019-03-25T01:27:18.982Z,0
2019-03-25T01:28:20.006Z,0
2019-03-25T01:29:19.111Z,0
2019-03-25T01:30:19.146Z,0
2019-03-25T01:31:19.204Z,0
2019-03-25T01:32:19.307Z,0
2019-03-25T01:33:19.325Z,0
2019-03-25T01:34:19.355Z,0
2019-03-25T01:35:19.382Z,0
2019-03-25T01:36:19.563Z,0
2019-03-25T01:37:19.433Z,0
2019-03-25T01:38:19.471Z,0
2019-03-25T01:39:19.509Z,0
2019-03-25T01:40:19.550Z,0
2019-03-25T01:41:19.641Z,0
2019-03-25T01:42:19.700Z,0
2019-03-25T01:43:19.751Z,0
2019-03-25T01:44:19.802Z,0
2019-03-25T01:45:19.847Z,0
2019-03-25T01:46:19.936Z,0
2019-03-25T01:47:19.967Z,0
2019-03-25T01:48:19.992Z,0
2019-03-25T01:49:20.012Z,0
2019-03-25T01:50:20.053Z,0
2019-03-25T01:51:20.160Z,0
2019-03-25T01:52:20.228Z,0
2019-03-25T01:53:20.267Z,0
2019-03-25T01:54:20.336Z,0
2019-03-25T01:55:20.364Z,0
2019-03-25T01:56:20.421Z,0
2019-03-25T01:57:20.476Z,0
2019-03-25T01:58:20.512Z,0
2019-03-25T01:59:20.543Z,0
2019-03-25T02:00:20.572Z,0
2019-03-25T02:01:20.645Z,0
2019-03-25T02:02:20.718Z,0
2019-03-25T02:03:20.770Z,0
2019-03-25T02:04:20.806Z,0
2019-03-25T02:05:20.852Z,0
2019-03-25T02:06:20.940Z,0
2019-03-25T02:07:20.985Z,0
2019-03-25T02:08:21.014Z,0
2019-03-25T02:09:21.034Z,0
2019-03-25T02:10:21.055Z,0
2019-03-25T02:11:22.267Z,0
2019-03-25T02:12:21.177Z,0
2019-03-25T02:13:21.204Z,0
2019-03-25T02:14:21.267Z,0
2019-03-25T02:15:21.317Z,0
2019-03-25T02:16:21.379Z,0
2019-03-25T02:17:21.441Z,0
2019-03-25T02:18:21.471Z,0
2019-03-25T02:19:21.536Z,0
2019-03-25T02:20:26.111Z,0
2019-03-25T02:21:21.608Z,0
2019-03-25T02:22:21.748Z,0
2019-03-25T02:23:21.775Z,0
2019-03-25T02:24:21.816Z,0
2019-03-25T02:25:25.521Z,0
2019-03-25T02:26:21.853Z,0
2019-03-25T02:27:21.932Z,0
2019-03-25T02:28:21.971Z,0
2019-03-25T02:29:21.991Z,0
2019-03-25T02:30:22.025Z,0
2019-03-25T02:31:22.084Z,0
2019-03-25T02:32:22.143Z,0
2019-03-25T02:33:22.177Z,0
2019-03-25T02:34:22.192Z,0
2019-03-25T02:35:22.254Z,0
2019-03-25T02:36:22.322Z,0
2019-03-25T02:37:22.373Z,0
2019-03-25T02:38:22.417Z,0
2019-03-25T02:39:22.449Z,0
2019-03-25T02:40:22.547Z,0
2019-03-25T02:41:22.546Z,0
2019-03-25T02:42:22.662Z,0
2019-03-25T02:43:22.693Z,0
2019-03-25T02:44:22.736Z,0
2019-03-25T02:45:22.771Z,0
2019-03-25T02:46:22.805Z,0
2019-03-25T02:47:22.896Z,0
2019-03-25T02:48:22.951Z,0
2019-03-25T02:49:22.979Z,0
2019-03-25T02:50:23.023Z,0
2019-03-25T02:51:23.064Z,0
2019-03-25T02:52:23.137Z,0
2019-03-25T02:53:23.171Z,0
2019-03-25T02:54:23.207Z,0
2019-03-25T02:55:23.272Z,0
2019-03-25T02:56:24.265Z,0
2019-03-25T02:57:23.328Z,0
2019-03-25T02:58:23.377Z,0
2019-03-25T02:59:23.411Z,0
2019-03-25T03:00:23.434Z,0
2019-03-25T03:01:23.474Z,0
2019-03-25T03:02:23.548Z,0
2019-03-25T03:03:23.595Z,0
2019-03-25T03:04:23.618Z,0
2019-03-25T03:05:23.658Z,0
2019-03-25T03:06:23.688Z,0
2019-03-25T03:07:23.744Z,0
2019-03-25T03:08:23.789Z,0
2019-03-25T03:09:23.837Z,0
2019-03-25T03:10:23.867Z,0
2019-03-25T03:11:23.904Z,0
2019-03-25T03:12:23.976Z,0
2019-03-25T03:13:24.037Z,0
2019-03-25T03:14:24.042Z,0
2019-03-25T03:15:24.081Z,0
2019-03-25T03:16:24.105Z,0
2019-03-25T03:17:24.222Z,0
2019-03-25T03:18:24.254Z,0
2019-03-25T03:19:24.274Z,0
2019-03-25T03:20:24.300Z,0
2019-03-25T03:21:24.327Z,0
2019-03-25T03:22:24.394Z,0
2019-03-25T03:23:24.440Z,0
2019-03-25T03:24:24.466Z,0
2019-03-25T03:25:24.509Z,0
2019-03-25T03:26:24.539Z,0
2019-03-25T03:27:24.615Z,0
2019-03-25T03:28:24.608Z,0
2019-03-25T03:29:24.637Z,0
2019-03-25T03:30:24.643Z,0
2019-03-25T03:31:24.675Z,0
2019-03-25T03:32:24.730Z,0
2019-03-25T03:33:24.748Z,0
2019-03-25T03:34:24.785Z,0
2019-03-25T03:35:24.824Z,0
2019-03-25T03:36:24.848Z,0
2019-03-25T03:37:24.964Z,0
2019-03-25T03:38:25.071Z,0
2019-03-25T03:39:25.200Z,0
2019-03-25T03:40:25.277Z,0
2019-03-25T03:41:25.381Z,0
2019-03-25T03:42:25.500Z,0
2019-03-25T03:43:25.604Z,0
2019-03-25T03:44:25.686Z,0
2019-03-25T03:45:25.819Z,0
2019-03-25T03:46:25.887Z,0
2019-03-25T03:47:26.007Z,0
2019-03-25T03:48:26.104Z,0
2019-03-25T03:49:26.206Z,0
2019-03-25T03:50:26.376Z,0
2019-03-25T03:51:26.365Z,0
2019-03-25T03:52:26.536Z,0
2019-03-25T03:53:26.634Z,0
2019-03-25T03:54:26.660Z,0
2019-03-25T03:55:26.758Z,0
2019-03-25T03:56:26.771Z,0
2019-03-25T03:57:26.894Z,0
2019-03-25T03:58:26.980Z,0
2019-03-25T03:59:27.072Z,0
2019-03-25T04:00:27.139Z,0
2019-03-25T04:01:27.179Z,0
2019-03-25T04:02:27.249Z,0
2019-03-25T04:03:27.279Z,0
2019-03-25T04:04:27.307Z,0
2019-03-25T04:05:27.314Z,0
2019-03-25T04:06:27.435Z,0
2019-03-25T04:07:27.560Z,0
2019-03-25T04:08:27.656Z,0
2019-03-25T04:09:27.658Z,0
2019-03-25T04:10:27.702Z,0
2019-03-25T04:11:27.737Z,0
2019-03-25T04:12:27.766Z,0
2019-03-25T04:13:27.756Z,0
2019-03-25T04:14:27.910Z,0
2019-03-25T04:15:27.913Z,0
2019-03-25T04:16:27.959Z,0
2019-03-25T04:17:28.027Z,0
2019-03-25T04:18:28.028Z,0
2019-03-25T04:19:28.189Z,0
2019-03-25T04:20:28.194Z,0
2019-03-25T04:21:28.266Z,0
2019-03-25T04:22:28.206Z,0
2019-03-25T04:23:29.194Z,0
2019-03-25T04:24:28.215Z,0
2019-03-25T04:25:28.213Z,0
2019-03-25T04:26:29.490Z,0
2019-03-25T04:27:28.517Z,0
2019-03-25T04:28:28.521Z,0
2019-03-25T04:29:28.524Z,0
2019-03-25T04:30:28.512Z,0
2019-03-25T04:31:28.515Z,0
2019-03-25T04:32:28.559Z,0
2019-03-25T04:33:28.549Z,0
2019-03-25T04:34:28.557Z,0
2019-03-25T04:35:28.557Z,0
2019-03-25T04:36:28.545Z,0
2019-03-25T04:37:28.614Z,0
2019-03-25T04:38:28.606Z,0
2019-03-25T04:39:28.599Z,0
2019-03-25T04:40:29.759Z,0
2019-03-25T04:41:28.757Z,0
2019-03-25T04:42:28.774Z,0
2019-03-25T04:43:28.761Z,0
2019-03-25T04:44:28.751Z,0
2019-03-25T04:45:28.904Z,0
2019-03-25T04:46:28.967Z,0
2019-03-25T04:47:28.972Z,0
2019-03-25T04:48:28.955Z,1
2019-03-25T04:49:28.954Z,1
2019-03-25T04:50:28.951Z,0
2019-03-25T04:51:28.943Z,0
2019-03-25T04:52:29.117Z,1
2019-03-25T04:53:29.110Z,0
2019-03-25T04:54:30.259Z,1
2019-03-25T04:55:29.274Z,1
2019-03-25T04:56:38.938Z,2
2019-03-25T04:57:30.573Z,2
2019-03-25T04:58:29.565Z,3
2019-03-25T04:59:29.719Z,4
2019-03-25T05:00:29.711Z,4
2019-03-25T05:01:29.712Z,6
2019-03-25T05:02:29.756Z,7
2019-03-25T05:03:29.770Z,8
2019-03-25T05:04:29.868Z,10
2019-03-25T05:05:29.798Z,11
2019-03-25T05:06:29.884Z,13
2019-03-25T05:07:30.009Z,16
2019-03-25T05:08:30.106Z,19
2019-03-25T05:09:30.202Z,22
2019-03-25T05:10:30.307Z,26
2019-03-25T05:11:31.016Z,29
2019-03-25T05:12:30.530Z,33
2019-03-25T05:13:30.628Z,38
2019-03-25T05:14:30.724Z,41
2019-03-25T05:15:30.827Z,46
2019-03-25T05:16:30.937Z,54
2019-03-25T05:17:31.048Z,62
2019-03-25T05:18:31.143Z,69
2019-03-25T05:19:31.248Z,83
2019-03-25T05:20:31.355Z,97
2019-03-25T05:21:31.451Z,113
2019-03-25T05:22:31.581Z,123
2019-03-25T05:23:31.680Z,138
2019-03-25T05:24:31.817Z,147
2019-03-25T05:25:31.923Z,167
2019-03-25T05:26:32.034Z,184
2019-03-25T05:27:33.158Z,206
2019-03-25T05:28:32.258Z,235
2019-03-25T05:29:32.357Z,258
2019-03-25T05:30:32.458Z,277
2019-03-25T05:31:32.569Z,292
2019-03-25T05:32:32.690Z,318
2019-03-25T05:33:32.801Z,337
2019-03-25T05:34:32.901Z,354
2019-03-25T05:35:33.015Z,390
2019-03-25T05:36:33.162Z,413
2019-03-25T05:37:33.290Z,447
2019-03-25T05:38:33.388Z,468
2019-03-25T05:39:33.506Z,502
2019-03-25T05:40:33.635Z,541
2019-03-25T05:41:33.740Z,551
2019-03-25T05:42:33.964Z,595
2019-03-25T05:43:33.918Z,593
2019-03-25T05:44:34.079Z,644
2019-03-25T05:45:34.073Z,645
2019-03-25T05:46:34.185Z,683
2019-03-25T05:47:34.323Z,725
2019-03-25T05:48:34.421Z,741
2019-03-25T05:49:34.510Z,803
2019-03-25T05:50:34.669Z,865
2019-03-25T05:51:34.816Z,920
2019-03-25T05:52:34.949Z,1194
2019-03-25T05:53:34.998Z,1636
2019-03-25T05:54:34.949Z,1301
2019-03-25T05:55:35.063Z,1073
2019-03-25T05:56:35.114Z,1061
2019-03-25T05:57:35.314Z,973
2019-03-25T05:58:35.252Z,1046
2019-03-25T05:59:35.368Z,1099
2019-03-25T06:00:35.403Z,1056
2019-03-25T06:01:35.494Z,1030
2019-03-25T06:02:35.650Z,1044
2019-03-25T06:03:35.770Z,1089
2019-03-25T06:04:35.954Z,1111
2019-03-25T06:05:35.951Z,1263
2019-03-25T06:06:36.057Z,1209
2019-03-25T06:07:36.089Z,1220
2019-03-25T06:08:36.208Z,1249
2019-03-25T06:09:36.293Z,1254
2019-03-25T06:10:36.448Z,1276
2019-03-25T06:11:36.516Z,1316
2019-03-25T06:12:36.568Z,1358
2019-03-25T06:13:36.651Z,1373
2019-03-25T06:14:36.788Z,1368
2019-03-25T06:15:36.868Z,1418
2019-03-25T06:16:37.018Z,1474
2019-03-25T06:17:37.159Z,1480
2019-03-25T06:18:37.253Z,1567
2019-03-25T06:19:37.296Z,1585
2019-03-25T06:20:37.461Z,1531
2019-03-25T06:21:37.477Z,1482
2019-03-25T06:22:37.566Z,1567
2019-03-25T06:23:37.680Z,1579
2019-03-25T06:24:37.817Z,1587
2019-03-25T06:25:37.877Z,1583
2019-03-25T06:26:37.951Z,1570
2019-03-25T06:27:38.010Z,1624
2019-03-25T06:28:38.056Z,1698
2019-03-25T06:29:38.094Z,1738
2019-03-25T06:30:38.194Z,1745
2019-03-25T06:31:38.290Z,1757
2019-03-25T06:32:38.363Z,1772
2019-03-25T06:33:38.399Z,1799
2019-03-25T06:34:38.429Z,1826
2019-03-25T06:35:38.474Z,1905
2019-03-25T06:36:38.502Z,1931
2019-03-25T06:37:38.560Z,1896
2019-03-25T06:38:38.596Z,2045
2019-03-25T06:39:38.637Z,2303
2019-03-25T06:40:38.668Z,2838
2019-03-25T06:41:39.702Z,3766
2019-03-25T06:42:38.776Z,4486
2019-03-25T06:43:38.827Z,4095
2019-03-25T06:44:38.884Z,3780
2019-03-25T06:45:38.926Z,3333
2019-03-25T06:46:38.995Z,3324
2019-03-25T06:47:39.103Z,3213
2019-03-25T06:48:39.164Z,3157
2019-03-25T06:49:39.216Z,3077
2019-03-25T06:50:39.261Z,3125
2019-03-25T06:51:39.308Z,2547
2019-03-25T06:52:39.371Z,1957
2019-03-25T06:53:39.410Z,2502
2019-03-25T06:54:39.446Z,4223
2019-03-25T06:55:39.525Z,4317
2019-03-25T06:56:39.565Z,4201
2019-03-25T06:57:39.625Z,3372
2019-03-25T06:58:39.663Z,3278
2019-03-25T06:59:39.736Z,3475
2019-03-25T07:00:39.783Z,3507
2019-03-25T07:01:39.834Z,3451
2019-03-25T07:02:39.909Z,3829
2019-03-25T07:03:39.961Z,3147
2019-03-25T07:04:40.008Z,3186
2019-03-25T07:05:40.061Z,3539
2019-03-25T07:06:40.097Z,3789
2019-03-25T07:07:40.159Z,3653
2019-03-25T07:08:40.236Z,3548
2019-03-25T07:09:40.285Z,4318
2019-03-25T07:10:40.336Z,4391
2019-03-25T07:11:40.374Z,4343
2019-03-25T07:12:40.522Z,3297
2019-03-25T07:13:40.602Z,3315
2019-03-25T07:14:40.645Z,3418
2019-03-25T07:15:40.705Z,3475
2019-03-25T07:16:40.734Z,3410
2019-03-25T07:17:40.837Z,3571
2019-03-25T07:18:40.892Z,3507
2019-03-25T07:19:40.943Z,2901
2019-03-25T07:20:40.986Z,2917
2019-03-25T07:21:41.068Z,3193
2019-03-25T07:22:41.166Z,3431
2019-03-25T07:23:41.265Z,3272
2019-03-25T07:24:41.338Z,5666
2019-03-25T07:25:41.379Z,5099
2019-03-25T07:26:41.463Z,4200
2019-03-25T07:27:42.171Z,4474
2019-03-25T07:28:41.553Z,5570
2019-03-25T07:29:41.624Z,5193
2019-03-25T07:30:41.660Z,4373
2019-03-25T07:31:41.719Z,5389
2019-03-25T07:32:41.785Z,5051
2019-03-25T07:33:41.829Z,5807
2019-03-25T07:34:41.859Z,6473
2019-03-25T07:35:41.912Z,7304
2019-03-25T07:36:41.963Z,8127
2019-03-25T07:37:42.028Z,5804
2019-03-25T07:38:42.069Z,5835
2019-03-25T07:39:42.114Z,10011
2019-03-25T07:40:42.170Z,6410
2019-03-25T07:41:42.223Z,7876
2019-03-25T07:42:42.954Z,6257
2019-03-25T07:43:42.325Z,7888
2019-03-25T07:44:42.370Z,11863
2019-03-25T07:45:42.407Z,14017
2019-03-25T07:46:42.477Z,11893
2019-03-25T07:47:42.583Z,12935
2019-03-25T07:48:42.619Z,8076
2019-03-25T07:49:42.648Z,5501
2019-03-25T07:50:42.705Z,3055
2019-03-25T07:51:42.799Z,2539
2019-03-25T07:52:42.865Z,1849
2019-03-25T07:53:42.908Z,1914
2019-03-25T07:54:42.959Z,2309
2019-03-25T07:55:43.045Z,3549
2019-03-25T07:56:43.109Z,5822
2019-03-25T07:57:47.926Z,8347
2019-03-25T07:58:43.181Z,5160
2019-03-25T07:59:43.234Z,3860
2019-03-25T08:00:43.269Z,4442
2019-03-25T08:01:43.313Z,6555
2019-03-25T08:02:43.390Z,6287
2019-03-25T08:03:43.421Z,3938
2019-03-25T08:04:43.474Z,2159
2019-03-25T08:05:43.520Z,2052
2019-03-25T08:06:43.559Z,2619
2019-03-25T08:07:43.648Z,3664
2019-03-25T08:08:43.663Z,4788
2019-03-25T08:09:44.716Z,4161
2019-03-25T08:10:43.754Z,3267
2019-03-25T08:11:43.838Z,2086
2019-03-25T08:12:43.906Z,2479
2019-03-25T08:13:43.891Z,3477
2019-03-25T08:14:43.967Z,4061
2019-03-25T08:15:44.020Z,5047
2019-03-25T08:16:44.076Z,3159
2019-03-25T08:17:44.180Z,2210
2019-03-25T08:18:44.225Z,1944
2019-03-25T08:19:44.294Z,2006
2019-03-25T08:20:44.334Z,1796
2019-03-25T08:21:44.378Z,1463
2019-03-25T08:22:44.442Z,1476
2019-03-25T08:23:44.495Z,1300
2019-03-25T08:24:44.552Z,1311
2019-03-25T08:25:44.640Z,2546
2019-03-25T08:26:44.684Z,3473
2019-03-25T08:27:44.753Z,5482
2019-03-25T08:28:45.771Z,7288
2019-03-25T08:29:44.808Z,5985
2019-03-25T08:30:44.892Z,3857
2019-03-25T08:31:44.932Z,2819
2019-03-25T08:32:45.000Z,3699
2019-03-25T08:33:45.077Z,4588
2019-03-25T08:34:46.105Z,4425
2019-03-25T08:35:45.164Z,6536
2019-03-25T08:36:45.206Z,9515
2019-03-25T08:37:45.266Z,13407
2019-03-25T08:38:45.311Z,10864
2019-03-25T08:39:45.347Z,33464
2019-03-25T08:40:45.405Z,20040
2019-03-25T08:41:45.460Z,18248
2019-03-25T08:42:45.531Z,13683
2019-03-25T08:43:45.590Z,32288
2019-03-25T08:44:45.658Z,17024
2019-03-25T08:45:45.698Z,8882
2019-03-25T08:46:45.741Z,8482
2019-03-25T08:47:45.814Z,8604
2019-03-25T08:48:45.877Z,10609
2019-03-25T08:49:45.931Z,10607
2019-03-25T08:50:45.972Z,12575
2019-03-25T08:51:46.021Z,12308
2019-03-25T08:52:46.101Z,12016
2019-03-25T08:53:46.143Z,10793
2019-03-25T08:54:46.197Z,8004
2019-03-25T08:55:47.225Z,4725
2019-03-25T08:56:46.258Z,4713
2019-03-25T08:57:46.318Z,4842
2019-03-25T08:58:46.386Z,5663
2019-03-25T08:59:46.421Z,4386
2019-03-25T09:00:47.462Z,5731
2019-03-25T09:01:46.486Z,8987
2019-03-25T09:02:46.569Z,8988
2019-03-25T09:03:46.609Z,8762
2019-03-25T09:04:46.652Z,7439
2019-03-25T09:05:46.704Z,8081
2019-03-25T09:06:47.899Z,11142
2019-03-25T09:07:46.827Z,16049
2019-03-25T09:08:46.885Z,20672
2019-03-25T09:09:46.977Z,14112
2019-03-25T09:10:47.063Z,12181
2019-03-25T09:11:47.112Z,8866
2019-03-25T09:12:47.195Z,15713
2019-03-25T09:13:47.284Z,12016
2019-03-25T09:14:47.326Z,14574
2019-03-25T09:15:47.374Z,15117
2019-03-25T09:16:48.446Z,13458
2019-03-25T09:17:48.513Z,7607
2019-03-25T09:18:47.548Z,4644
2019-03-25T09:19:47.578Z,4135
2019-03-25T09:20:47.610Z,4276
2019-03-25T09:21:47.655Z,4893
2019-03-25T09:22:47.758Z,5489
2019-03-25T09:23:47.840Z,7493
2019-03-25T09:24:47.886Z,7451
2019-03-25T09:25:47.936Z,12267
2019-03-25T09:26:48.003Z,12041
2019-03-25T09:27:48.088Z,10059
2019-03-25T09:28:48.131Z,7584
2019-03-25T09:29:48.187Z,6691
2019-03-25T09:30:48.247Z,6304
2019-03-25T09:31:48.325Z,6199
2019-03-25T09:32:48.391Z,4986
2019-03-25T09:33:48.511Z,3979
2019-03-25T09:34:48.566Z,4645
2019-03-25T09:35:48.606Z,6539
2019-03-25T09:36:48.683Z,8646
2019-03-25T09:37:48.742Z,17976
2019-03-25T09:38:48.811Z,10584
2019-03-25T09:39:48.862Z,15163
2019-03-25T09:40:48.906Z,33656
2019-03-25T09:41:48.945Z,14185
2019-03-25T09:42:49.020Z,17368
2019-03-25T09:43:49.069Z,14123
2019-03-25T09:44:49.120Z,17056
2019-03-25T09:45:49.170Z,12695
2019-03-25T09:46:49.210Z,5861
2019-03-25T09:47:49.291Z,6533
2019-03-25T09:48:49.327Z,6529
2019-03-25T09:49:49.387Z,9302
2019-03-25T09:50:49.430Z,25416
2019-03-25T09:51:49.475Z,12239
2019-03-25T09:52:49.593Z,14390
2019-03-25T09:53:49.641Z,14539
2019-03-25T09:54:49.682Z,10401
2019-03-25T09:55:49.756Z,40128
2019-03-25T09:56:49.808Z,22416
2019-03-25T09:57:49.870Z,13614
2019-03-25T09:58:49.920Z,23344
2019-03-25T09:59:49.972Z,40040
2019-03-25T10:00:52.001Z,25360
2019-03-25T10:01:50.051Z,25352
2019-03-25T10:02:50.122Z,13368
2019-03-25T10:03:50.154Z,17704
2019-03-25T10:04:51.186Z,23368
2019-03-25T10:05:50.254Z,18712
2019-03-25T10:06:50.314Z,13305
2019-03-25T10:07:50.367Z,6959
2019-03-25T10:08:50.404Z,5813
2019-03-25T10:09:50.445Z,4769
2019-03-25T10:10:50.433Z,2933
2019-03-25T10:11:50.586Z,1902
2019-03-25T10:12:50.754Z,1542
2019-03-25T10:13:50.797Z,1693
2019-03-25T10:14:50.813Z,1939
2019-03-25T10:15:50.854Z,1894
2019-03-25T10:16:50.969Z,2500
2019-03-25T10:17:51.034Z,3217
2019-03-25T10:18:51.088Z,4820
2019-03-25T10:19:51.148Z,7657
2019-03-25T10:20:51.186Z,38056
2019-03-25T10:21:51.232Z,46752
2019-03-25T10:22:51.294Z,45296
2019-03-25T10:23:51.359Z,38616
2019-03-25T10:24:51.451Z,28144
2019-03-25T10:25:51.525Z,35656
2019-03-25T10:26:51.578Z,22088
2019-03-25T10:27:51.654Z,27832
2019-03-25T10:28:51.697Z,26944
2019-03-25T10:29:51.737Z,19784
2019-03-25T10:30:51.781Z,14054
2019-03-25T10:31:51.822Z,36392
2019-03-25T10:32:51.886Z,25168
2019-03-25T10:33:51.933Z,10999
2019-03-25T10:34:51.991Z,12085
2019-03-25T10:35:52.060Z,14827
2019-03-25T10:36:52.101Z,11869
2019-03-25T10:37:52.199Z,11117
2019-03-25T10:38:52.318Z,9264
2019-03-25T10:39:52.365Z,7048
2019-03-25T10:40:52.444Z,9314
2019-03-25T10:41:52.479Z,6857
2019-03-25T10:42:52.566Z,6722
2019-03-25T10:43:52.612Z,6099
2019-03-25T10:44:52.663Z,6604
2019-03-25T10:45:52.706Z,5554
2019-03-25T10:46:52.772Z,3115
2019-03-25T10:47:52.903Z,1993
2019-03-25T10:48:53.016Z,1943
2019-03-25T10:49:53.153Z,2190
2019-03-25T10:50:53.260Z,2485
2019-03-25T10:51:53.302Z,3157
2019-03-25T10:52:53.372Z,7043
2019-03-25T10:53:53.438Z,28952
2019-03-25T10:54:53.513Z,30336
2019-03-25T10:55:53.546Z,40088
2019-03-25T10:56:53.630Z,23320
2019-03-25T10:57:53.692Z,34000
2019-03-25T10:58:57.820Z,22520
2019-03-25T10:59:53.747Z,21792
2019-03-25T11:00:53.792Z,16432
2019-03-25T11:01:53.838Z,13621
2019-03-25T11:02:53.927Z,6475
2019-03-25T11:03:54.003Z,4310
2019-03-25T11:04:54.039Z,3042
2019-03-25T11:05:54.133Z,2298
2019-03-25T11:06:54.129Z,2114
2019-03-25T11:07:54.295Z,2091
2019-03-25T11:08:54.417Z,2269
2019-03-25T11:09:54.417Z,2598
2019-03-25T11:10:54.577Z,3212
2019-03-25T11:11:54.613Z,4543
2019-03-25T11:12:54.711Z,57904
2019-03-25T11:13:54.752Z,54736
2019-03-25T11:14:54.795Z,50216
2019-03-25T11:15:54.875Z,48472
2019-03-25T11:16:54.927Z,48672
2019-03-25T11:17:54.992Z,65535
2019-03-25T11:18:56.016Z,65535
2019-03-25T11:19:55.054Z,65535
2019-03-25T11:20:55.101Z,65535
2019-03-25T11:21:55.184Z,65535
2019-03-25T11:22:55.271Z,46552
2019-03-25T11:23:55.314Z,23400
2019-03-25T11:24:55.367Z,22144
2019-03-25T11:25:55.404Z,24184
2019-03-25T11:26:55.441Z,21272
2019-03-25T11:27:55.498Z,17320
2019-03-25T11:28:55.548Z,9187
2019-03-25T11:29:56.596Z,5110
2019-03-25T11:30:55.626Z,4187
2019-03-25T11:31:55.654Z,3401
2019-03-25T11:32:55.755Z,2642
2019-03-25T11:33:55.848Z,3390
2019-03-25T11:34:55.885Z,4165
2019-03-25T11:35:56.961Z,4624
2019-03-25T11:36:55.993Z,5271
2019-03-25T11:37:56.053Z,6264
2019-03-25T11:38:56.103Z,7638
2019-03-25T11:39:56.138Z,9283
2019-03-25T11:40:56.187Z,11297
2019-03-25T11:41:56.237Z,13058
2019-03-25T11:42:56.339Z,25480
2019-03-25T11:43:56.376Z,36824
2019-03-25T11:44:56.419Z,53184
2019-03-25T11:45:56.474Z,8930
2019-03-25T11:46:56.511Z,6354
2019-03-25T11:47:56.576Z,5467
2019-03-25T11:48:56.659Z,4552
2019-03-25T11:49:56.730Z,3772
2019-03-25T11:50:56.772Z,4770
2019-03-25T11:51:56.832Z,5537
2019-03-25T11:52:56.873Z,5980
2019-03-25T11:53:58.674Z,6896
2019-03-25T11:54:57.033Z,8449
2019-03-25T11:55:57.105Z,8638
2019-03-25T11:56:57.167Z,8734
2019-03-25T11:57:57.259Z,10631
2019-03-25T11:58:57.359Z,14918
2019-03-25T11:59:57.354Z,22808
2019-03-25T12:00:57.381Z,31104
2019-03-25T12:01:57.429Z,54376
2019-03-25T12:02:57.505Z,34304
2019-03-25T12:03:57.618Z,34944
2019-03-25T12:04:57.687Z,42520
2019-03-25T12:05:57.717Z,60760
2019-03-25T12:06:57.806Z,65535
2019-03-25T12:07:57.857Z,65535
2019-03-25T12:08:57.930Z,65535
2019-03-25T12:09:58.983Z,65535
2019-03-25T12:10:58.087Z,65535
2019-03-25T12:11:58.180Z,65535
2019-03-25T12:12:58.261Z,65535
2019-03-25T12:13:58.401Z,65535
2019-03-25T12:14:58.444Z,64128
2019-03-25T12:15:58.504Z,65535
2019-03-25T12:16:58.604Z,65535
2019-03-25T12:17:58.748Z,65535
2019-03-25T12:18:58.753Z,65535
2019-03-25T12:19:58.821Z,65535
2019-03-25T12:20:58.941Z,65535
2019-03-25T12:21:58.916Z,65535
2019-03-25T12:22:59.069Z,65535
2019-03-25T12:23:59.079Z,65535
2019-03-25T12:24:59.124Z,65535
2019-03-25T12:25:59.193Z,65535
2019-03-25T12:26:59.291Z,65535
2019-03-25T12:27:59.402Z,49192
2019-03-25T12:28:59.474Z,65535
2019-03-25T12:29:59.489Z,53736
2019-03-25T12:30:59.562Z,20608
2019-03-25T12:31:59.637Z,15732
2019-03-25T12:33:04.095Z,65535
2019-03-25T12:33:59.858Z,37304
2019-03-25T12:34:59.942Z,8581
2019-03-25T12:35:59.982Z,10078
2019-03-25T12:37:00.070Z,17272
2019-03-25T12:38:00.173Z,65535
2019-03-25T12:39:00.264Z,8141
2019-03-25T12:40:00.382Z,8656
2019-03-25T12:41:00.415Z,65535
2019-03-25T12:42:00.546Z,49392
2019-03-25T12:43:00.591Z,21144
2019-03-25T12:44:00.718Z,65535
2019-03-25T12:45:00.819Z,28992
2019-03-25T12:46:00.938Z,21888
2019-03-25T12:47:01.015Z,44208
2019-03-25T12:48:01.047Z,19504
2019-03-25T12:49:01.109Z,13961
2019-03-25T12:50:01.312Z,14969
2019-03-25T12:51:01.217Z,15229
2019-03-25T12:52:01.265Z,9256
2019-03-25T12:53:01.309Z,8026
2019-03-25T12:54:01.390Z,8225
2019-03-25T12:55:01.459Z,8880
2019-03-25T12:56:01.495Z,10208
2019-03-25T12:57:01.541Z,8593
2019-03-25T12:58:01.597Z,6479
2019-03-25T12:59:01.678Z,4846
2019-03-25T13:00:01.720Z,3635
2019-03-25T13:01:01.774Z,3087
2019-03-25T13:02:01.815Z,2744
2019-03-25T13:03:01.852Z,2100
2019-03-25T13:04:01.897Z,1658
2019-03-25T13:05:02.003Z,1529
2019-03-25T13:06:02.121Z,2348
2019-03-25T13:07:02.217Z,3247
2019-03-25T13:08:02.269Z,10431
2019-03-25T13:09:02.359Z,22056
2019-03-25T13:10:02.395Z,36984
2019-03-25T13:11:02.465Z,16504
2019-03-25T13:12:02.485Z,52152
2019-03-25T13:13:02.568Z,25840
2019-03-25T13:14:02.564Z,19568
2019-03-25T13:15:02.609Z,26920
2019-03-25T13:16:02.699Z,16258
2019-03-25T13:17:02.745Z,12658
2019-03-25T13:18:02.786Z,11080
2019-03-25T13:19:02.848Z,8759
2019-03-25T13:20:02.893Z,9820
2019-03-25T13:21:02.919Z,11696
2019-03-25T13:22:02.975Z,11191
2019-03-25T13:23:03.016Z,12426
2019-03-25T13:24:03.089Z,19600
2019-03-25T13:25:03.144Z,33088
2019-03-25T13:26:03.187Z,57568
2019-03-25T13:27:03.233Z,65535
2019-03-25T13:28:03.280Z,65535
2019-03-25T13:29:03.354Z,65535
2019-03-25T13:30:03.390Z,65535
2019-03-25T13:31:03.434Z,62216
2019-03-25T13:32:03.505Z,65535
2019-03-25T13:33:03.600Z,55616
2019-03-25T13:34:03.716Z,58032
2019-03-25T13:35:03.760Z,57904
2019-03-25T13:36:03.797Z,63608
2019-03-25T13:37:03.844Z,58632
2019-03-25T13:38:03.896Z,38352
2019-03-25T13:39:03.973Z,27800
2019-03-25T13:40:04.025Z,15411
2019-03-25T13:41:04.070Z,11187
2019-03-25T13:42:04.108Z,12514
2019-03-25T13:43:04.182Z,12844
2019-03-25T13:44:04.310Z,10363
2019-03-25T13:45:04.343Z,11527